createdAt,value
2022-10-30T00:03:02.257Z,10.10
2022-10-30T00:18:08.115Z,9.30
2022-10-30T00:33:12.452Z,9.50
2022-10-30T00:48:17.681Z,9.07
2022-10-30T01:03:23.035Z,9.73
2022-10-30T01:18:33.872Z,8.60
2022-10-30T01:33:57.483Z,10.20
2022-10-30T01:49:11.145Z,9.80
2022-10-30T02:04:15.553Z,11.03
2022-10-30T02:19:20.386Z,11.23
2022-10-30T02:34:25.084Z,11.17
2022-10-30T02:49:29.752Z,10.97
2022-10-30T03:04:34.464Z,10.83
2022-10-30T03:19:39.137Z,11.70
2022-10-30T03:34:43.553Z,13.10
2022-10-30T03:49:48.439Z,12.63
2022-10-30T04:04:56.661Z,11.50
2022-10-30T04:20:01.103Z,21.67
2022-10-30T04:35:05.499Z,11.47
2022-10-30T04:50:09.923Z,13.17
2022-10-30T05:05:14.177Z,13.80
2022-10-30T05:20:19.128Z,13.00
2022-10-30T05:35:23.904Z,12.97
2022-10-30T05:50:29.484Z,14.43
2022-10-30T06:05:51.483Z,14.43
2022-10-30T06:20:57.416Z,16.37
2022-10-30T06:36:20.690Z,17.20
2022-10-30T06:51:25.652Z,16.23
2022-10-30T07:06:31.219Z,16.10
2022-10-30T07:21:37.035Z,16.60
2022-10-30T07:36:43.379Z,17.40
2022-10-30T07:52:00.655Z,17.77
2022-10-30T08:07:05.919Z,18.43
2022-10-30T08:22:12.686Z,18.57
2022-10-30T08:37:18.632Z,17.83
2022-10-30T08:52:22.973Z,16.37
2022-10-30T09:07:33.632Z,18.47
2022-10-30T09:23:06.684Z,21.67
2022-10-30T09:38:11.969Z,15.90
2022-10-30T09:53:40.255Z,15.90
2022-10-30T10:08:58.221Z,12.90
2022-10-30T10:24:23.461Z,10.27
2022-10-30T10:39:57.246Z,8.20
2022-10-30T10:55:05.063Z,7.63
2022-10-30T11:10:13.628Z,6.63
2022-10-30T11:25:25.305Z,5.70
2022-10-30T11:40:34.465Z,5.13
2022-10-30T11:55:40.690Z,9.13
2022-10-30T12:10:56.947Z,6.03
2022-10-30T12:26:02.714Z,5.07
2022-10-30T12:41:21.836Z,5.10
2022-10-30T12:56:32.777Z,4.50
2022-10-30T13:11:55.239Z,3.47
2022-10-30T13:27:06.320Z,3.67
2022-10-30T13:42:18.759Z,3.17
2022-10-30T13:57:41.801Z,2.90
2022-10-30T14:12:47.213Z,4.23
2022-10-30T14:27:57.552Z,4.27
2022-10-30T14:43:05.086Z,4.40
2022-10-30T14:58:18.905Z,5.87
2022-10-30T15:13:24.244Z,4.93
2022-10-30T15:28:30.650Z,5.13
2022-10-30T15:43:37.173Z,5.60
2022-10-30T15:58:42.683Z,6.53
2022-10-30T16:13:47.870Z,7.33
2022-10-30T16:28:52.553Z,7.37
2022-10-30T16:44:16.341Z,8.50
2022-10-30T16:59:25.268Z,8.57
2022-10-30T17:14:29.729Z,6.73
2022-10-30T17:29:39.955Z,7.80
2022-10-30T17:44:44.414Z,7.00
2022-10-30T17:59:49.179Z,6.37
2022-10-30T18:14:53.376Z,8.10
2022-10-30T18:29:58.365Z,6.93
2022-10-30T18:45:03.157Z,6.63
2022-10-30T19:00:07.870Z,6.73
2022-10-30T19:15:23.040Z,6.70
2022-10-30T19:30:28.909Z,6.70
2022-10-30T19:45:35.100Z,6.60
2022-10-30T20:00:41.502Z,6.73
2022-10-30T20:15:46.389Z,7.37
2022-10-30T20:30:52.051Z,5.47
2022-10-30T20:45:57.914Z,6.13
2022-10-30T21:01:02.883Z,5.20
2022-10-30T21:16:09.038Z,4.77
2022-10-30T21:31:14.704Z,5.20
2022-10-30T21:46:19.283Z,4.57
2022-10-30T22:01:25.112Z,4.47
2022-10-30T22:16:30.335Z,4.47
2022-10-30T22:31:34.685Z,4.37
2022-10-30T22:46:39.440Z,5.00
2022-10-30T23:01:44.162Z,4.53
2022-10-30T23:16:48.496Z,4.63
2022-10-30T23:31:53.082Z,4.43
2022-10-30T23:46:57.344Z,5.00
